createdAt,value
2023-06-27T04:07:34.586Z,66.23
2023-06-27T04:10:37.436Z,66.23
2023-06-27T04:13:39.616Z,68.97
2023-06-27T04:16:42.074Z,66.74
2023-06-27T04:19:44.251Z,66.79
2023-06-27T04:22:47.541Z,66.70
2023-06-27T04:26:08.601Z,66.80
2023-06-27T04:29:11.734Z,68.46
2023-06-27T04:32:13.907Z,67.95
2023-06-27T04:35:19.486Z,75.07
2023-06-27T04:38:21.860Z,71.45
2023-06-27T04:41:24.368Z,68.95
2023-06-27T04:44:26.701Z,68.63
2023-06-27T04:47:29.201Z,69.55
2023-06-27T04:50:31.395Z,70.25
2023-06-27T04:53:33.876Z,71.74
2023-06-27T04:56:36.362Z,69.07
2023-06-27T04:59:39.351Z,69.56
2023-06-27T05:02:49.656Z,75.07
2023-06-27T05:05:52.996Z,77.35
2023-06-27T05:08:55.305Z,82.00
2023-06-27T05:11:57.852Z,77.18
2023-06-27T05:14:59.971Z,79.66
2023-06-27T05:18:08.372Z,76.63
2023-06-27T05:21:10.703Z,79.66
2023-06-27T05:24:13.144Z,73.67
2023-06-27T05:27:15.337Z,74.05
2023-06-27T05:30:17.837Z,71.06
2023-06-27T05:33:19.970Z,75.71
2023-06-27T05:36:22.483Z,76.18
2023-06-27T05:39:24.791Z,73.18
2023-06-27T05:42:27.349Z,79.21
2023-06-27T05:45:30.434Z,74.91
2023-06-27T05:48:33.448Z,76.78
2023-06-27T05:51:36.481Z,79.84
2023-06-27T05:54:39.247Z,77.61
2023-06-27T05:57:41.374Z,74.30
2023-06-27T06:00:43.781Z,75.36
2023-06-27T06:03:46.277Z,72.78
2023-06-27T06:06:48.606Z,72.31
2023-06-27T06:09:51.477Z,66.47
2023-06-27T06:12:53.728Z,71.24
2023-06-27T06:15:56.316Z,67.96
2023-06-27T06:18:58.747Z,68.72
2023-06-27T06:22:01.217Z,68.82
2023-06-27T06:25:04.437Z,68.48
2023-06-27T06:28:07.326Z,67.97
2023-06-27T06:31:12.425Z,68.49
2023-06-27T06:34:15.164Z,68.30
2023-06-27T06:37:18.276Z,69.04
2023-06-27T06:40:21.075Z,69.91
2023-06-27T06:43:26.781Z,69.82
2023-06-27T06:46:29.405Z,68.50
2023-06-27T06:49:31.643Z,68.35
2023-06-27T06:52:34.144Z,69.66
2023-06-27T06:55:36.279Z,67.57
2023-06-27T06:58:39.016Z,67.78
2023-06-27T07:01:42.354Z,69.38
2023-06-27T07:04:44.961Z,69.71
2023-06-27T07:07:47.252Z,70.01
2023-06-27T07:10:49.969Z,69.64
2023-06-27T07:13:52.701Z,69.96
2023-06-27T07:16:55.198Z,70.26
2023-06-27T07:19:57.585Z,70.88
2023-06-27T07:23:00.039Z,73.06
2023-06-27T07:26:02.159Z,74.16
2023-06-27T07:29:05.076Z,72.85
2023-06-27T07:32:07.583Z,71.07
2023-06-27T07:35:10.089Z,68.80
2023-06-27T07:38:12.283Z,69.81
2023-06-27T07:41:14.855Z,70.12
2023-06-27T07:44:17.133Z,71.04
2023-06-27T07:47:19.704Z,69.99
2023-06-27T07:50:21.975Z,70.29
2023-06-27T07:53:25.646Z,69.04
2023-06-27T07:56:28.203Z,69.32
2023-06-27T07:59:30.683Z,71.06
2023-06-27T08:02:32.822Z,71.29
2023-06-27T08:05:36.444Z,69.52
2023-06-27T08:08:39.000Z,69.90
2023-06-27T08:11:41.515Z,68.17
2023-06-27T08:14:46.152Z,68.05
2023-06-27T08:17:49.434Z,69.52
2023-06-27T08:20:51.647Z,71.72
2023-06-27T08:23:54.082Z,69.41
2023-06-27T08:26:56.869Z,71.07
2023-06-27T08:29:59.378Z,68.54
2023-06-27T08:33:01.603Z,69.36
2023-06-27T08:36:04.174Z,72.33
2023-06-27T08:39:06.526Z,70.43
2023-06-27T08:42:09.151Z,68.54
2023-06-27T08:45:12.159Z,69.62
2023-06-27T08:48:15.967Z,66.15
2023-06-27T08:51:22.185Z,66.68
2023-06-27T08:54:33.205Z,67.16
2023-06-27T08:57:37.356Z,69.42
2023-06-27T09:00:40.614Z,69.32
2023-06-27T09:03:45.219Z,71.22
2023-06-27T09:06:48.401Z,68.90
2023-06-27T09:09:51.840Z,69.66
2023-06-27T09:12:57.768Z,69.85
2023-06-27T09:15:59.921Z,69.25
2023-06-27T09:19:02.618Z,70.97
2023-06-27T09:22:06.290Z,73.49
2023-06-27T09:25:16.245Z,71.05
2023-06-27T09:28:18.899Z,71.40
2023-06-27T09:31:23.051Z,69.35
2023-06-27T09:34:28.520Z,71.64
2023-06-27T09:40:40.183Z,71.66
2023-06-27T09:43:42.644Z,71.69
2023-06-27T09:46:46.702Z,70.36
2023-06-27T09:49:50.211Z,69.67
2023-06-27T09:52:58.429Z,69.53
2023-06-27T09:56:02.004Z,69.25
2023-06-27T09:59:17.639Z,71.03
2023-06-27T10:02:30.663Z,67.20
2023-06-27T10:05:39.764Z,66.66
2023-06-27T10:08:45.536Z,67.97
2023-06-27T10:11:48.139Z,68.08
2023-06-27T10:14:51.180Z,68.35
2023-06-27T10:17:54.200Z,68.38
2023-06-27T10:20:57.320Z,65.18
2023-06-27T10:24:06.360Z,66.39
2023-06-27T10:27:10.678Z,67.07
2023-06-27T10:30:19.360Z,66.68
2023-06-27T10:33:29.301Z,64.57
2023-06-27T10:37:01.655Z,65.76
2023-06-27T10:40:09.378Z,68.49
2023-06-27T10:43:46.760Z,66.20
2023-06-27T10:46:49.216Z,68.01
2023-06-27T10:49:55.510Z,64.66
2023-06-27T10:53:03.220Z,64.06
2023-06-27T10:56:18.068Z,64.21
2023-06-27T10:59:24.152Z,64.64
2023-06-27T11:02:33.835Z,64.78
2023-06-27T11:05:47.140Z,61.93
2023-06-27T11:08:57.409Z,61.42
2023-06-27T11:12:08.866Z,60.79
2023-06-27T11:15:11.505Z,61.45
2023-06-27T11:18:18.493Z,60.71
2023-06-27T11:21:21.025Z,62.68
2023-06-27T11:24:25.040Z,61.82
2023-06-27T11:27:31.263Z,62.92
2023-06-27T11:30:34.641Z,62.98
2023-06-27T11:33:37.253Z,63.55
2023-06-27T11:36:40.292Z,63.36
2023-06-27T11:39:53.122Z,62.92
2023-06-27T11:43:08.214Z,64.37
2023-06-27T11:46:10.506Z,64.13
2023-06-27T11:49:12.663Z,65.21
2023-06-27T11:52:15.270Z,64.87
2023-06-27T11:55:17.682Z,65.25
2023-06-27T11:58:31.523Z,65.36
2023-06-27T12:01:41.346Z,65.29
2023-06-27T12:04:43.890Z,66.88
2023-06-27T12:08:06.293Z,66.23
2023-06-27T12:11:10.672Z,66.03
2023-06-27T12:14:22.544Z,66.15
2023-06-27T12:17:25.117Z,66.52
2023-06-27T12:20:41.072Z,66.00
2023-06-27T12:23:43.796Z,67.49
2023-06-27T12:26:46.692Z,68.64
2023-06-27T12:29:49.330Z,71.02
2023-06-27T12:32:51.620Z,69.59
2023-06-27T12:35:54.209Z,72.08
2023-06-27T12:38:56.376Z,71.85
2023-06-27T12:41:58.988Z,70.34
2023-06-27T12:45:01.341Z,71.55
2023-06-27T12:48:04.017Z,70.64
2023-06-27T12:51:06.872Z,69.69
2023-06-27T12:54:09.351Z,72.84
2023-06-27T12:57:11.635Z,73.31
2023-06-27T13:00:20.932Z,71.40
2023-06-27T13:03:24.180Z,70.67
2023-06-27T13:06:26.693Z,69.23
2023-06-27T13:09:28.867Z,74.57
2023-06-27T13:12:31.438Z,70.77
2023-06-27T13:15:41.579Z,72.17
2023-06-27T13:18:48.402Z,71.35
2023-06-27T13:21:52.815Z,70.79
2023-06-27T13:24:57.621Z,70.82
2023-06-27T13:27:59.820Z,72.00
2023-06-27T13:31:02.366Z,71.62
2023-06-27T13:34:05.138Z,70.83
2023-06-27T13:37:07.987Z,70.73
2023-06-27T13:40:10.840Z,69.57
2023-06-27T13:43:13.381Z,70.87
2023-06-27T13:46:15.627Z,69.06
2023-06-27T13:49:18.475Z,69.63
2023-06-27T13:52:20.657Z,69.60
2023-06-27T13:55:24.268Z,68.04
2023-06-27T13:58:27.005Z,67.67
2023-06-27T14:01:29.596Z,65.40
2023-06-27T14:04:32.172Z,63.25
2023-06-27T14:10:38.026Z,63.42
2023-06-27T14:13:44.282Z,60.82
2023-06-27T14:16:48.983Z,60.77
2023-06-27T14:19:53.058Z,60.21
2023-06-27T14:22:58.689Z,58.59
2023-06-27T14:26:00.920Z,57.22
2023-06-27T14:29:03.823Z,58.31
2023-06-27T14:32:06.264Z,56.86
2023-06-27T14:35:09.126Z,56.72
2023-06-27T14:38:11.302Z,58.63
2023-06-27T14:41:13.883Z,59.28
2023-06-27T14:44:16.020Z,58.11
2023-06-27T14:47:18.988Z,58.48
2023-06-27T14:50:21.396Z,56.97
2023-06-27T14:53:23.941Z,57.50
2023-06-27T14:56:26.093Z,63.43
2023-06-27T14:59:28.629Z,58.71
2023-06-27T15:02:30.925Z,58.91
2023-06-27T15:05:40.468Z,59.89
2023-06-27T15:08:42.979Z,59.54
2023-06-27T15:11:45.555Z,60.11
2023-06-27T15:14:51.972Z,59.56
2023-06-27T15:17:55.164Z,59.65
